UAE670 OMDB-VHHH
Flight info
| Callsign | UAE670 |
|---|---|
| Flight time | N/A |
| Altitude | 41000 |
| Route | IVURO M677 LALDO B505 NADSO B524 ALPOR M504 TELEM A791 CEA B465 CTG A599 LINSO/K0907S1250 A599 POU R473 SIERA |
| Aircraft | A359/H-SDE2E3GHIJ3J4J5LM1ORWXY/LB1D1 |
Departure
| Time | 2026-05-08 09:10 |
|---|---|
| Airport | Dubai International Airport (OMDB) |
Arrival
| Time | N/A |
|---|---|
| Airport | Hong Kong International Airport (VHHH) |
| Time | Latitude | Longitude | Altitude | Speed | Heading |
|---|---|---|---|---|---|
| 2026-05-08 08:40 | 25.24364 | 55.37379 | 28 ft | 0 kts | 210° |
| 2026-05-08 09:01 | 25.24370 | 55.37382 | 28 ft | 2 kts | 210° |
| 2026-05-08 09:02 | 25.24385 | 55.37390 | 27 ft | 2 kts | 201° |
| 2026-05-08 09:02 | 25.24400 | 55.37396 | 27 ft | 3 kts | 198° |
| 2026-05-08 09:02 | 25.24418 | 55.37399 | 25 ft | 2 kts | 162° |
| 2026-05-08 09:02 | 25.24434 | 55.37393 | 27 ft | 3 kts | 142° |
| 2026-05-08 09:03 | 25.24446 | 55.37382 | 25 ft | 0 kts | 123° |
| 2026-05-08 09:04 | 25.24440 | 55.37394 | 26 ft | 4 kts | 118° |
| 2026-05-08 09:04 | 25.24424 | 55.37429 | 27 ft | 7 kts | 117° |
| 2026-05-08 09:05 | 25.24397 | 55.37481 | 28 ft | 9 kts | 120° |
| 2026-05-08 09:05 | 25.24360 | 55.37550 | 28 ft | 12 kts | 121° |
| 2026-05-08 09:05 | 25.24312 | 55.37636 | 28 ft | 14 kts | 122° |
| 2026-05-08 09:05 | 25.24261 | 55.37731 | 28 ft | 10 kts | 102° |
| 2026-05-08 09:06 | 25.24279 | 55.37776 | 28 ft | 6 kts | 51° |
| 2026-05-08 09:06 | 25.24315 | 55.37805 | 28 ft | 8 kts | 34° |
| 2026-05-08 09:06 | 25.24352 | 55.37831 | 28 ft | 0 kts | 32° |
| 2026-05-08 09:07 | 25.24461 | 55.37921 | 28 ft | 29 kts | 38° |
| 2026-05-08 09:08 | 25.24568 | 55.37998 | 28 ft | 13 kts | 31° |
| 2026-05-08 09:08 | 25.24616 | 55.38030 | 28 ft | 9 kts | 32° |
| 2026-05-08 09:08 | 25.24643 | 55.38050 | 28 ft | 0 kts | 33° |
| 2026-05-08 09:09 | 25.24658 | 55.38060 | 28 ft | 18 kts | 32° |
| 2026-05-08 09:09 | 25.24792 | 55.38042 | 28 ft | 11 kts | 305° |
| 2026-05-08 09:09 | 25.24896 | 55.37865 | 28 ft | 60 kts | 300° |
| 2026-05-08 09:10 | 25.25241 | 55.37241 | 29 ft | 127 kts | 301° |
| 2026-05-08 09:10 | 25.25817 | 55.36235 | 108 ft | 176 kts | 300° |
| 2026-05-08 09:10 | 25.26459 | 55.35086 | 746 ft | 172 kts | 301° |
| 2026-05-08 09:10 | 25.27080 | 55.33963 | 1251 ft | 180 kts | 296° |
| 2026-05-08 09:11 | 25.27763 | 55.32704 | 1516 ft | 203 kts | 297° |